Time;durP1;ratioP1;P1;durP2;ratioP2;P2;SDS_P1;SDS_P2;PMS_P1;PMS_P2;Temp;Humidity;BMP_temperature;BMP_pressure;BME280_temperature;BME280_humidity;BME280_pressure;Samples;Min_cycle;Max_cycle;Signal;HPM_P1;HPM_P2
2022/08/13 00:00:34;;;;;;;3.00;1.50;;;23.90;48.50;;;;;;5045625;28;20021;-76
2022/08/13 00:03:01;;;;;;;4.93;1.67;;;23.80;48.50;;;;;;5049663;28;20021;-77
2022/08/13 00:05:27;;;;;;;4.97;1.60;;;23.80;48.70;;;;;;5049152;28;20402;-77
2022/08/13 00:07:53;;;;;;;3.67;1.42;;;23.80;48.80;;;;;;5049439;28;20450;-76
2022/08/13 00:10:29;;;;;;;1.80;1.50;;;23.70;48.80;;;;;;5047146;28;20021;-77
2022/08/13 00:13:03;;;;;;;4.43;1.73;;;23.70;49.00;;;;;;5045254;28;20048;-78
2022/08/13 00:15:37;;;;;;;5.35;1.73;;;23.60;49.10;;;;;;5048015;28;20067;-77
2022/08/13 00:18:09;;;;;;;6.00;1.50;;;23.70;49.20;;;;;;5065176;28;20043;-75
2022/08/13 00:20:48;;;;;;;10.30;1.60;;;23.60;49.20;;;;;;5047874;28;20077;-78
2022/08/13 00:23:15;;;;;;;1.40;1.30;;;23.50;49.40;;;;;;5049337;28;20112;-78
2022/08/13 00:25:46;;;;;;;1.52;1.42;;;23.50;49.70;;;;;;5050114;28;20166;-77
2022/08/13 00:28:16;;;;;;;6.53;1.38;;;23.40;49.70;;;;;;5048891;28;20021;-78
2022/08/13 00:30:42;;;;;;;4.10;1.50;;;23.40;49.80;;;;;;5049719;28;20025;-79
2022/08/13 00:33:14;;;;;;;3.10;1.40;;;23.30;50.00;;;;;;5046218;28;20025;-78
2022/08/13 00:35:42;;;;;;;3.05;1.35;;;23.30;50.00;;;;;;5049052;28;20134;-76
2022/08/13 00:38:14;;;;;;;5.75;1.42;;;23.20;50.10;;;;;;5050622;28;20025;-78
2022/08/13 00:40:57;;;;;;;1.35;1.25;;;23.20;50.20;;;;;;5047200;28;20417;-76
2022/08/13 00:43:27;;;;;;;1.63;1.40;;;23.10;50.40;;;;;;5048112;28;20119;-78
2022/08/13 00:45:54;;;;;;;6.65;1.83;;;23.10;50.50;;;;;;5050185;28;20037;-75
2022/08/13 00:51:13;;;;;;;5.95;1.42;;;23.10;50.70;;;;;;5048017;28;20078;-76
2022/08/13 00:53:39;;;;;;;;;;;23.00;50.80;;;;;;5050957;28;20021;-76
2022/08/13 00:56:08;;;;;;;2.30;1.30;;;22.90;50.90;;;;;;5047063;28;19919;-75
2022/08/13 00:58:34;;;;;;;3.28;1.60;;;22.90;51.20;;;;;;5050598;28;20017;-78
2022/08/13 01:01:01;;;;;;;5.05;1.50;;;22.80;51.30;;;;;;5054119;28;20029;-76
2022/08/13 01:03:31;;;;;;;1.40;1.30;;;22.80;51.50;;;;;;5069631;28;20310;-76
2022/08/13 01:05:59;;;;;;;2.03;1.50;;;22.70;51.60;;;;;;5052675;28;20032;-77
2022/08/13 01:08:31;;;;;;;2.75;1.25;;;22.70;51.70;;;;;;5054672;28;20025;-77
2022/08/13 01:11:03;;;;;;;3.05;1.60;;;22.70;51.80;;;;;;5046489;28;20051;-77
2022/08/13 01:13:33;;;;;;;1.60;1.50;;;22.60;51.80;;;;;;5061841;28;20028;-76
2022/08/13 01:16:04;;;;;;;1.40;1.30;;;22.60;51.90;;;;;;5055202;28;20029;-77
2022/08/13 01:18:31;;;;;;;3.30;1.17;;;22.50;51.90;;;;;;5056874;28;20474;-76
2022/08/13 01:21:05;;;;;;;3.85;1.50;;;22.50;52.00;;;;;;5051107;28;20052;-78
2022/08/13 01:23:31;;;;;;;9.93;1.55;;;22.50;52.10;;;;;;5054155;28;20021;-79
2022/08/13 01:25:59;;;;;;;1.40;1.30;;;22.50;52.00;;;;;;5054497;28;20025;-77
2022/08/13 01:28:29;;;;;;;7.43;2.05;;;22.50;52.00;;;;;;5053822;28;20116;-76
2022/08/13 01:31:05;;;;;;;2.63;1.30;;;22.50;52.20;;;;;;5052892;28;20036;-77
2022/08/13 01:33:35;;;;;;;2.28;1.20;;;22.50;52.20;;;;;;5050766;28;20555;-78
2022/08/13 01:36:08;;;;;;;1.92;1.10;;;22.40;52.30;;;;;;5050732;28;20012;-76
2022/08/13 01:38:36;;;;;;;2.72;1.35;;;22.40;52.40;;;;;;5043993;28;20029;-76
2022/08/13 01:41:10;;;;;;;3.30;1.55;;;22.40;52.50;;;;;;5043152;28;20026;-77
2022/08/13 01:43:40;;;;;;;1.67;1.20;;;22.40;53.00;;;;;;5051277;28;20066;-76
2022/08/13 01:46:10;;;;;;;4.18;1.58;;;22.40;52.70;;;;;;5052987;28;20021;-77
2022/08/13 01:51:32;;;;;;;1.40;1.30;;;22.40;52.80;;;;;;5050821;28;20039;-78
2022/08/13 01:53:59;;;;;;;5.32;1.50;;;22.30;52.90;;;;;;5051420;28;20021;-75
2022/08/13 01:56:30;;;;;;;3.25;1.45;;;22.30;53.10;;;;;;5051967;28;20048;-77
2022/08/13 01:59:01;;;;;;;2.10;1.30;;;22.20;53.00;;;;;;5051047;28;20029;-75
2022/08/13 02:01:28;;;;;;;1.23;1.13;;;22.20;53.10;;;;;;5050405;28;20635;-75
2022/08/13 02:03:56;;;;;;;4.50;1.30;;;22.20;53.30;;;;;;5051417;28;20068;-77
2022/08/13 02:06:31;;;;;;;4.43;1.20;;;22.10;53.40;;;;;;5049350;28;20381;-78
2022/08/13 02:09:05;;;;;;;3.58;1.27;;;22.10;53.50;;;;;;5063139;28;20043;-76
2022/08/13 02:11:34;;;;;;;4.50;1.20;;;22.10;53.70;;;;;;5051595;28;20044;-78
2022/08/13 02:14:03;;;;;;;2.88;1.48;;;22.10;53.60;;;;;;5052810;28;20032;-78
2022/08/13 02:16:30;;;;;;;1.40;1.30;;;22.00;53.80;;;;;;5051718;28;20096;-77
2022/08/13 02:18:58;;;;;;;1.35;1.25;;;22.00;53.80;;;;;;5049142;28;20075;-77
2022/08/13 02:21:25;;;;;;;1.55;1.30;;;22.00;53.90;;;;;;5050802;28;20057;-78
2022/08/13 02:23:58;;;;;;;1.63;1.40;;;21.90;53.80;;;;;;5049154;28;20029;-76
2022/08/13 02:26:27;;;;;;;1.15;1.13;;;21.90;53.90;;;;;;5049678;28;20028;-77
2022/08/13 02:28:54;;;;;;;5.18;1.15;;;21.90;54.00;;;;;;5045965;28;20037;-78
2022/08/13 02:31:21;;;;;;;2.55;1.38;;;21.90;54.20;;;;;;5048618;28;20060;-77
2022/08/13 02:33:51;;;;;;;6.05;1.67;;;21.90;54.20;;;;;;5049722;28;20021;-78
2022/08/13 02:36:22;;;;;;;1.50;1.40;;;21.80;54.20;;;;;;5050429;28;20025;-76
2022/08/13 02:39:08;;;;;;;10.00;1.70;;;21.90;54.20;;;;;;5051406;28;20119;-76
2022/08/13 02:41:42;;;;;;;3.10;1.30;;;21.80;54.20;;;;;;5050299;28;20167;-78
2022/08/13 02:44:10;;;;;;;3.63;1.52;;;21.80;54.30;;;;;;5050045;28;20036;-77
2022/08/13 02:46:42;;;;;;;7.32;1.58;;;21.80;54.50;;;;;;5042691;28;20523;-77
2022/08/13 02:49:09;;;;;;;1.48;1.15;;;21.70;54.70;;;;;;5049298;28;20032;-76
2022/08/13 02:51:36;;;;;;;1.77;1.35;;;21.60;54.80;;;;;;5051926;28;20472;-78
2022/08/13 02:54:01;;;;;;;3.70;1.40;;;21.60;54.80;;;;;;5051625;28;20303;-75
2022/08/13 02:56:30;;;;;;;2.95;1.70;;;21.60;55.70;;;;;;5048735;28;20078;-79
2022/08/13 02:58:56;;;;;;;3.92;1.40;;;21.60;54.90;;;;;;5051315;28;20034;-77
2022/08/13 03:01:26;;;;;;;4.00;1.50;;;21.60;54.90;;;;;;5051806;28;20465;-78
2022/08/13 03:03:57;;;;;;;2.85;1.20;;;21.60;55.10;;;;;;5047487;28;20699;-77
2022/08/13 03:06:24;;;;;;;2.47;1.40;;;21.60;55.10;;;;;;5065932;28;20044;-73
2022/08/13 03:08:52;;;;;;;4.25;1.40;;;21.60;55.00;;;;;;5050545;28;20025;-76
2022/08/13 03:11:19;;;;;;;3.20;1.40;;;21.50;55.40;;;;;;5049866;28;20104;-76
2022/08/13 03:13:53;;;;;;;6.70;1.88;;;21.50;55.60;;;;;;5051405;28;20025;-77
2022/08/13 03:16:22;;;;;;;4.43;1.60;;;21.50;56.20;;;;;;5050056;28;20075;-75
2022/08/13 03:18:49;;;;;;;1.75;1.30;;;21.40;56.00;;;;;;5049663;28;20035;-77
2022/08/13 03:21:18;;;;;;;4.53;1.48;;;21.40;55.80;;;;;;5049485;28;20433;-77
2022/08/13 03:23:46;;;;;;;2.38;1.45;;;21.30;55.90;;;;;;5048266;28;20044;-76
2022/08/13 03:26:14;;;;;;;2.85;1.20;;;21.30;56.10;;;;;;5050542;28;20108;-77
2022/08/13 03:28:40;;;;;;;4.03;1.30;;;21.20;56.40;;;;;;5049685;28;20044;-77
2022/08/13 03:31:06;;;;;;;2.03;1.50;;;21.10;56.70;;;;;;5048147;28;20024;-76
2022/08/13 03:33:35;;;;;;;3.90;1.55;;;21.00;56.90;;;;;;5050333;28;20021;-78
2022/08/13 03:36:00;;;;;;;1.83;1.10;;;21.00;57.00;;;;;;5056735;28;20078;-77
2022/08/13 03:38:26;;;;;;;4.18;1.48;;;21.00;57.00;;;;;;5057682;28;20033;-77
2022/08/13 03:41:11;;;;;;;3.92;1.60;;;20.90;57.00;;;;;;5056047;28;20055;-78
2022/08/13 03:43:38;;;;;;;6.43;1.23;;;20.90;57.60;;;;;;5054734;28;20047;-76
2022/08/13 03:46:08;;;;;;;5.50;1.50;;;20.80;57.40;;;;;;5055387;28;20021;-77
2022/08/13 03:48:37;;;;;;;3.55;1.25;;;20.80;57.70;;;;;;5050323;28;20025;-77
2022/08/13 03:51:03;;;;;;;5.85;1.58;;;20.80;57.60;;;;;;5050250;28;20100;-79
2022/08/13 03:53:29;;;;;;;4.10;1.50;;;20.70;57.60;;;;;;5049609;28;20029;-77
2022/08/13 03:55:58;;;;;;;2.13;1.20;;;20.70;57.70;;;;;;5050317;28;20485;-76
2022/08/13 03:58:28;;;;;;;3.25;1.48;;;20.60;57.90;;;;;;5049506;28;20044;-77
2022/08/13 04:00:54;;;;;;;2.72;1.45;;;20.60;58.00;;;;;;5048676;28;20031;-78
2022/08/13 04:03:29;;;;;;;6.95;1.30;;;20.60;58.10;;;;;;5047208;28;20516;-78
2022/08/13 04:06:06;;;;;;;2.65;1.23;;;20.60;58.10;;;;;;5049381;28;20041;-76
2022/08/13 04:08:34;;;;;;;7.13;1.42;;;20.60;58.00;;;;;;5049374;28;20014;-78
2022/08/13 04:11:01;;;;;;;7.00;1.70;;;20.60;58.10;;;;;;5051111;28;20013;-78
2022/08/13 04:13:28;;;;;;;8.07;1.90;;;20.60;58.10;;;;;;5047166;28;20071;-77
2022/08/13 04:15:53;;;;;;;2.38;1.60;;;20.60;58.20;;;;;;5047834;28;20029;-80
2022/08/13 04:18:19;;;;;;;3.50;1.50;;;20.60;58.20;;;;;;5051199;28;20513;-78
2022/08/13 04:20:54;;;;;;;1.38;1.27;;;20.50;58.20;;;;;;5050673;28;20041;-77
2022/08/13 04:23:20;;;;;;;4.13;1.35;;;20.50;58.40;;;;;;5050915;28;20029;-76
2022/08/13 04:25:50;;;;;;;5.90;1.30;;;20.50;58.50;;;;;;5050882;28;20358;-77
2022/08/13 04:28:16;;;;;;;2.28;1.35;;;20.50;58.60;;;;;;5051747;28;20445;-76
2022/08/13 04:30:43;;;;;;;5.45;1.30;;;20.50;58.80;;;;;;5049851;28;20094;-76
2022/08/13 04:33:14;;;;;;;5.15;1.52;;;20.40;58.80;;;;;;5056083;28;20342;-77
2022/08/13 04:35:41;;;;;;;3.90;1.50;;;20.40;59.00;;;;;;5053366;28;20473;-76
2022/08/13 04:38:11;;;;;;;1.48;1.27;;;20.40;59.10;;;;;;5053442;28;20032;-77
2022/08/13 04:40:40;;;;;;;4.00;1.35;;;20.40;59.10;;;;;;5051291;28;20017;-73
2022/08/13 04:43:06;;;;;;;1.95;1.35;;;20.40;59.20;;;;;;5052842;28;20358;-77
2022/08/13 04:45:33;;;;;;;8.30;1.58;;;20.40;59.20;;;;;;5050899;28;20033;-76
2022/08/13 04:48:04;;;;;;;4.45;1.52;;;20.40;59.30;;;;;;5054334;28;20021;-76
2022/08/13 04:50:33;;;;;;;1.35;1.20;;;20.40;59.40;;;;;;5047933;28;20013;-77
2022/08/13 04:53:05;;;;;;;1.48;1.30;;;20.40;59.50;;;;;;5054173;28;20013;-78
2022/08/13 04:55:31;;;;;;;2.83;1.65;;;20.40;59.60;;;;;;5052774;28;20021;-78
2022/08/13 04:57:57;;;;;;;11.68;1.67;;;20.40;59.70;;;;;;5051032;28;20354;-78
2022/08/13 05:00:32;;;;;;;1.02;1.02;;;20.30;59.80;;;;;;5048312;28;20033;-77
2022/08/13 05:03:16;;;;;;;5.60;1.30;;;20.40;60.00;;;;;;5050425;28;20036;-77
2022/08/13 05:05:44;;;;;;;2.85;1.30;;;20.40;60.00;;;;;;5051527;28;20438;-79
2022/08/13 05:08:15;;;;;;;1.20;1.10;;;20.40;60.00;;;;;;5050321;28;20107;-76
2022/08/13 05:10:42;;;;;;;4.15;1.48;;;20.40;60.00;;;;;;5069830;28;20017;-76
2022/08/13 05:13:22;;;;;;;1.60;1.50;;;20.50;60.10;;;;;;5054296;28;20782;-76
2022/08/13 05:15:48;;;;;;;2.42;1.35;;;20.50;60.10;;;;;;5053075;28;20017;-76
2022/08/13 05:18:15;;;;;;;2.30;1.55;;;20.60;60.10;;;;;;5053227;28;20087;-76
2022/08/13 05:20:40;;;;;;;1.17;1.10;;;20.60;60.10;;;;;;5051511;28;20027;-77
2022/08/13 05:23:08;;;;;;;2.03;1.45;;;20.60;60.00;;;;;;5052026;28;20032;-78
2022/08/13 05:25:36;;;;;;;5.57;1.70;;;20.70;60.00;;;;;;5052390;28;20029;-76
2022/08/13 05:28:02;;;;;;;5.57;1.73;;;20.70;59.90;;;;;;5063012;28;20131;-77
2022/08/13 05:30:30;;;;;;;3.80;1.33;;;20.80;59.90;;;;;;5053333;28;20732;-77
2022/08/13 05:32:57;;;;;;;3.92;1.52;;;20.90;60.80;;;;;;5051985;28;20021;-78
2022/08/13 05:35:27;;;;;;;3.70;1.55;;;20.90;60.10;;;;;;5050977;28;20464;-76
2022/08/13 05:37:53;;;;;;;5.65;1.27;;;20.90;60.00;;;;;;5051440;28;20339;-80
2022/08/13 05:40:19;;;;;;;8.85;1.70;;;21.00;60.00;;;;;;5052320;28;20028;-80
2022/08/13 05:42:45;;;;;;;1.52;1.42;;;21.00;59.90;;;;;;5048036;28;20041;-77
2022/08/13 05:45:13;;;;;;;2.35;1.70;;;21.00;60.00;;;;;;5051237;28;20044;-78
2022/08/13 05:47:39;;;;;;;5.57;1.38;;;21.10;60.40;;;;;;5051740;28;20121;-78
2022/08/13 05:50:13;;;;;;;2.90;1.42;;;21.10;60.20;;;;;;5050409;28;20451;-78
2022/08/13 05:52:44;;;;;;;3.03;1.50;;;21.10;60.40;;;;;;5051224;28;20025;-79
2022/08/13 05:55:13;;;;;;;1.80;1.70;;;21.20;60.30;;;;;;5047911;28;20013;-77
2022/08/13 05:57:41;;;;;;;6.65;1.77;;;21.20;60.30;;;;;;5052688;28;20021;-76
2022/08/13 06:05:38;;;;;;;4.82;1.70;;;21.30;60.70;;;;;;5051995;28;20353;-75
2022/08/13 06:08:05;;;;;;;6.93;1.45;;;21.40;60.60;;;;;;5052422;28;20039;-76
2022/08/13 06:10:30;;;;;;;3.85;1.70;;;21.50;60.70;;;;;;5061221;28;20029;-78
2022/08/13 06:12:56;;;;;;;5.03;1.98;;;21.60;60.60;;;;;;5053122;28;20025;-77
2022/08/13 06:15:23;;;;;;;5.00;1.80;;;21.70;60.60;;;;;;5051519;28;20029;-77
2022/08/13 06:17:52;;;;;;;1.85;1.30;;;21.70;60.20;;;;;;5049319;28;20024;-75
2022/08/13 06:20:20;;;;;;;3.25;1.83;;;21.80;60.00;;;;;;5050764;28;21336;-76
2022/08/13 06:22:47;;;;;;;7.35;1.77;;;21.90;59.80;;;;;;5050559;28;20029;-76
2022/08/13 06:25:16;;;;;;;2.92;1.50;;;22.00;59.60;;;;;;5047467;28;20537;-77
2022/08/13 06:27:43;;;;;;;3.40;1.35;;;22.10;59.40;;;;;;5050228;28;20029;-76
2022/08/13 06:30:11;;;;;;;2.45;1.45;;;22.10;59.40;;;;;;5053243;28;20094;-77
2022/08/13 06:32:37;;;;;;;6.13;1.58;;;22.20;59.40;;;;;;5051825;28;20013;-76
2022/08/13 06:35:08;;;;;;;3.03;2.00;;;22.30;59.20;;;;;;5048144;28;20234;-75
2022/08/13 06:37:36;;;;;;;4.28;1.80;;;22.40;59.10;;;;;;5051597;28;20033;-77
2022/08/13 06:40:04;;;;;;;6.60;1.85;;;22.50;58.90;;;;;;5048720;28;20031;-76
2022/08/13 06:42:34;;;;;;;2.47;1.90;;;22.50;58.90;;;;;;5051566;28;20033;-77
2022/08/13 06:45:00;;;;;;;6.25;1.80;;;22.60;58.80;;;;;;5049112;28;20500;-76
2022/08/13 06:47:29;;;;;;;4.63;1.83;;;22.80;58.70;;;;;;5052292;28;20029;-78
2022/08/13 06:49:54;;;;;;;3.20;2.03;;;22.80;58.20;;;;;;5048620;28;20021;-76
2022/08/13 06:52:20;;;;;;;4.32;1.80;;;22.90;58.00;;;;;;5049130;28;20042;-75
2022/08/13 06:54:47;;;;;;;4.13;1.70;;;23.00;57.90;;;;;;5048033;28;20013;-77
2022/08/13 06:57:16;;;;;;;4.15;1.85;;;23.10;57.80;;;;;;5049647;28;20029;-78
2022/08/13 06:59:43;;;;;;;3.85;1.35;;;23.20;57.70;;;;;;5049865;28;20029;-75
2022/08/13 07:02:14;;;;;;;3.95;1.50;;;23.30;58.10;;;;;;5049803;28;20465;-77
2022/08/13 07:04:46;;;;;;;2.95;1.75;;;23.40;57.50;;;;;;5049993;28;20036;-76
2022/08/13 07:07:12;;;;;;;2.25;1.58;;;23.50;57.40;;;;;;5050090;28;20028;-79
2022/08/13 07:09:37;;;;;;;2.10;1.60;;;23.60;57.50;;;;;;5050673;28;20025;-76
2022/08/13 07:12:06;;;;;;;3.22;1.85;;;23.80;57.20;;;;;;5049341;28;20032;-74
2022/08/13 07:14:31;;;;;;;2.42;1.80;;;23.90;56.90;;;;;;5050980;28;20028;-76
2022/08/13 07:16:59;;;;;;;5.63;1.65;;;24.10;56.50;;;;;;5048394;28;20029;-80
2022/08/13 07:19:27;;;;;;;3.38;1.95;;;24.20;56.30;;;;;;5049763;28;20036;-82
2022/08/13 07:21:54;;;;;;;6.40;2.75;;;24.40;56.00;;;;;;5050748;28;20059;-78
2022/08/13 07:24:19;;;;;;;5.57;1.95;;;24.60;55.80;;;;;;5051273;28;21140;-77
2022/08/13 07:26:45;;;;;;;3.95;1.80;;;24.70;55.20;;;;;;5048514;28;20043;-80
